sensor_id;sensor_type;location;lat;lon;timestamp;pressure;altitude;pressure_sealevel;temperature;humidity
34374;BME280;20637;55.770;37.592;2022-08-21T00:01:46;100576.44;;;20.20;40.43
34374;BME280;20637;55.770;37.592;2022-08-21T00:04:12;100578.75;;;20.17;40.16
34374;BME280;20637;55.770;37.592;2022-08-21T00:06:38;100574.53;;;20.14;40.15
34374;BME280;20637;55.770;37.592;2022-08-21T00:09:06;100575.81;;;20.12;40.37
34374;BME280;20637;55.770;37.592;2022-08-21T00:11:34;100569.88;;;20.08;40.46
34374;BME280;20637;55.770;37.592;2022-08-21T00:14:00;100581.91;;;20.07;40.35
34374;BME280;20637;55.770;37.592;2022-08-21T00:16:26;100564.81;;;20.05;40.54
34374;BME280;20637;55.770;37.592;2022-08-21T00:18:52;100569.66;;;20.03;40.48
34374;BME280;20637;55.770;37.592;2022-08-21T00:21:18;100573.66;;;20.01;40.38
34374;BME280;20637;55.770;37.592;2022-08-21T00:23:44;100574.91;;;19.98;40.60
34374;BME280;20637;55.770;37.592;2022-08-21T00:26:10;100574.28;;;19.96;40.58
34374;BME280;20637;55.770;37.592;2022-08-21T00:28:35;100576.81;;;19.97;40.65
34374;BME280;20637;55.770;37.592;2022-08-21T00:31:02;100573.03;;;19.98;40.62
34374;BME280;20637;55.770;37.592;2022-08-21T00:33:29;100575.75;;;19.98;40.89
34374;BME280;20637;55.770;37.592;2022-08-21T00:35:55;100572.59;;;19.95;40.60
34374;BME280;20637;55.770;37.592;2022-08-21T00:38:21;100575.94;;;19.90;40.90
34374;BME280;20637;55.770;37.592;2022-08-21T00:40:52;100577.00;;;19.89;40.64
34374;BME280;20637;55.770;37.592;2022-08-21T00:43:22;100565.59;;;19.86;40.92
34374;BME280;20637;55.770;37.592;2022-08-21T00:45:48;100564.97;;;19.84;41.04
34374;BME280;20637;55.770;37.592;2022-08-21T00:48:14;100561.56;;;19.82;41.06
34374;BME280;20637;55.770;37.592;2022-08-21T00:50:45;100561.81;;;19.80;41.30
34374;BME280;20637;55.770;37.592;2022-08-21T00:53:12;100560.09;;;19.79;41.12
34374;BME280;20637;55.770;37.592;2022-08-21T00:55:39;100558.81;;;19.75;40.92
34374;BME280;20637;55.770;37.592;2022-08-21T00:58:06;100561.31;;;19.70;41.28
34374;BME280;20637;55.770;37.592;2022-08-21T01:00:35;100563.22;;;19.70;41.26
34374;BME280;20637;55.770;37.592;2022-08-21T01:03:06;100570.81;;;19.68;41.16
34374;BME280;20637;55.770;37.592;2022-08-21T01:05:33;100556.69;;;19.64;41.07
34374;BME280;20637;55.770;37.592;2022-08-21T01:07:59;100570.56;;;19.63;41.26
34374;BME280;20637;55.770;37.592;2022-08-21T01:10:24;100563.63;;;19.60;41.47
34374;BME280;20637;55.770;37.592;2022-08-21T01:12:52;100562.75;;;19.60;41.54
34374;BME280;20637;55.770;37.592;2022-08-21T01:15:19;100569.09;;;19.60;41.48
34374;BME280;20637;55.770;37.592;2022-08-21T01:17:46;100557.47;;;19.58;41.29
34374;BME280;20637;55.770;37.592;2022-08-21T01:20:12;100566.34;;;19.54;41.44
34374;BME280;20637;55.770;37.592;2022-08-21T01:22:38;100566.53;;;19.52;41.27
34374;BME280;20637;55.770;37.592;2022-08-21T01:25:07;100566.72;;;19.50;41.66
34374;BME280;20637;55.770;37.592;2022-08-21T01:27:32;100565.91;;;19.50;41.57
34374;BME280;20637;55.770;37.592;2022-08-21T01:30:04;100566.94;;;19.49;41.58
34374;BME280;20637;55.770;37.592;2022-08-21T01:32:33;100557.88;;;19.48;41.53
34374;BME280;20637;55.770;37.592;2022-08-21T01:34:59;100562.69;;;19.46;41.59
34374;BME280;20637;55.770;37.592;2022-08-21T01:37:25;100555.56;;;19.45;41.79
34374;BME280;20637;55.770;37.592;2022-08-21T01:39:50;100558.47;;;19.44;41.81
34374;BME280;20637;55.770;37.592;2022-08-21T01:42:16;100557.16;;;19.40;41.86
34374;BME280;20637;55.770;37.592;2022-08-21T01:44:42;100563.25;;;19.35;41.85
34374;BME280;20637;55.770;37.592;2022-08-21T01:47:09;100565.13;;;19.35;42.09
34374;BME280;20637;55.770;37.592;2022-08-21T01:49:37;100565.34;;;19.33;42.07
34374;BME280;20637;55.770;37.592;2022-08-21T01:52:04;100557.75;;;19.29;41.95
34374;BME280;20637;55.770;37.592;2022-08-21T01:54:30;100564.84;;;19.23;42.07
34374;BME280;20637;55.770;37.592;2022-08-21T01:56:56;100558.09;;;19.19;42.07
34374;BME280;20637;55.770;37.592;2022-08-21T01:59:24;100561.25;;;19.16;42.41
34374;BME280;20637;55.770;37.592;2022-08-21T02:01:50;100561.25;;;19.16;42.34
34374;BME280;20637;55.770;37.592;2022-08-21T02:04:16;100561.66;;;19.13;42.45
34374;BME280;20637;55.770;37.592;2022-08-21T02:06:42;100553.00;;;19.10;42.46
34374;BME280;20637;55.770;37.592;2022-08-21T02:09:10;100563.31;;;19.08;42.19
34374;BME280;20637;55.770;37.592;2022-08-21T02:11:36;100560.56;;;19.08;42.55
34374;BME280;20637;55.770;37.592;2022-08-21T02:14:10;100566.88;;;19.08;42.44
34374;BME280;20637;55.770;37.592;2022-08-21T02:16:37;100571.06;;;19.04;42.55
34374;BME280;20637;55.770;37.592;2022-08-21T02:19:03;100575.69;;;19.03;42.55
34374;BME280;20637;55.770;37.592;2022-08-21T02:21:30;100579.91;;;19.06;42.62
34374;BME280;20637;55.770;37.592;2022-08-21T02:23:55;100580.56;;;19.08;42.40
34374;BME280;20637;55.770;37.592;2022-08-21T02:26:21;100575.28;;;19.07;42.50
34374;BME280;20637;55.770;37.592;2022-08-21T02:28:46;100581.63;;;19.07;42.54
34374;BME280;20637;55.770;37.592;2022-08-21T02:31:13;100567.28;;;19.05;42.66
34374;BME280;20637;55.770;37.592;2022-08-21T02:33:39;100576.53;;;19.04;42.39
34374;BME280;20637;55.770;37.592;2022-08-21T02:36:07;100570.41;;;19.02;42.51
34374;BME280;20637;55.770;37.592;2022-08-21T02:38:34;100566.84;;;19.01;42.90
34374;BME280;20637;55.770;37.592;2022-08-21T02:41:04;100563.47;;;18.99;42.39
34374;BME280;20637;55.770;37.592;2022-08-21T02:43:30;100571.47;;;19.01;42.82
34374;BME280;20637;55.770;37.592;2022-08-21T02:45:57;100575.03;;;19.01;42.86
34374;BME280;20637;55.770;37.592;2022-08-21T02:48:26;100570.22;;;19.03;42.69
34374;BME280;20637;55.770;37.592;2022-08-21T02:50:56;100572.75;;;19.05;42.47
34374;BME280;20637;55.770;37.592;2022-08-21T02:53:23;100576.34;;;19.06;42.30
34374;BME280;20637;55.770;37.592;2022-08-21T02:55:50;100576.16;;;19.07;42.77
34374;BME280;20637;55.770;37.592;2022-08-21T02:58:22;100581.22;;;19.10;42.63
34374;BME280;20637;55.770;37.592;2022-08-21T03:00:49;100574.03;;;19.09;42.73
34374;BME280;20637;55.770;37.592;2022-08-21T03:03:15;100577.63;;;19.10;42.75
34374;BME280;20637;55.770;37.592;2022-08-21T03:05:41;100580.19;;;19.11;42.36
34374;BME280;20637;55.770;37.592;2022-08-21T03:08:09;100586.28;;;19.13;42.44
34374;BME280;20637;55.770;37.592;2022-08-21T03:10:37;100586.94;;;19.15;42.75
34374;BME280;20637;55.770;37.592;2022-08-21T03:13:05;100580.41;;;19.16;42.43
34374;BME280;20637;55.770;37.592;2022-08-21T03:15:31;100577.47;;;19.18;42.37
34374;BME280;20637;55.770;37.592;2022-08-21T03:17:58;100580.00;;;19.19;42.43
34374;BME280;20637;55.770;37.592;2022-08-21T03:20:27;100579.53;;;19.16;42.25
34374;BME280;20637;55.770;37.592;2022-08-21T03:22:54;100581.66;;;19.14;42.63
34374;BME280;20637;55.770;37.592;2022-08-21T03:25:21;100584.38;;;19.14;42.69
34374;BME280;20637;55.770;37.592;2022-08-21T03:27:48;100592.59;;;19.14;42.25
34374;BME280;20637;55.770;37.592;2022-08-21T03:30:16;100592.59;;;19.14;42.58
34374;BME280;20637;55.770;37.592;2022-08-21T03:32:42;100591.34;;;19.16;42.50
34374;BME280;20637;55.770;37.592;2022-08-21T03:35:08;100590.94;;;19.19;42.38
34374;BME280;20637;55.770;37.592;2022-08-21T03:37:35;100592.22;;;19.23;42.47
34374;BME280;20637;55.770;37.592;2022-08-21T03:40:03;100598.81;;;19.29;42.46
34374;BME280;20637;55.770;37.592;2022-08-21T03:42:28;100592.28;;;19.30;42.00
34374;BME280;20637;55.770;37.592;2022-08-21T03:44:54;100593.56;;;19.34;41.98
34374;BME280;20637;55.770;37.592;2022-08-21T03:47:20;100593.16;;;19.37;41.81
34374;BME280;20637;55.770;37.592;2022-08-21T03:49:47;100592.38;;;19.43;41.70
34374;BME280;20637;55.770;37.592;2022-08-21T03:52:13;100589.88;;;19.48;41.65
34374;BME280;20637;55.770;37.592;2022-08-21T03:54:38;100584.84;;;19.52;41.75
34374;BME280;20637;55.770;37.592;2022-08-21T03:57:06;100581.06;;;19.53;41.68
34374;BME280;20637;55.770;37.592;2022-08-21T03:59:32;100575.19;;;19.56;41.51
34374;BME280;20637;55.770;37.592;2022-08-21T04:02:00;100581.94;;;19.60;41.68
34374;BME280;20637;55.770;37.592;2022-08-21T04:04:27;100580.47;;;19.64;41.36
34374;BME280;20637;55.770;37.592;2022-08-21T04:06:54;100573.56;;;19.68;41.36
34374;BME280;20637;55.770;37.592;2022-08-21T04:09:21;100583.66;;;19.74;41.13
34374;BME280;20637;55.770;37.592;2022-08-21T04:11:47;100572.53;;;19.75;41.11
34374;BME280;20637;55.770;37.592;2022-08-21T04:14:13;100582.22;;;19.78;40.98
34374;BME280;20637;55.770;37.592;2022-08-21T04:16:40;100582.88;;;19.80;40.86
34374;BME280;20637;55.770;37.592;2022-08-21T04:19:07;100575.94;;;19.84;40.72
34374;BME280;20637;55.770;37.592;2022-08-21T04:21:33;100577.22;;;19.88;40.53
34374;BME280;20637;55.770;37.592;2022-08-21T04:23:59;100578.06;;;19.88;40.56
34374;BME280;20637;55.770;37.592;2022-08-21T04:26:25;100586.50;;;19.93;40.54
34374;BME280;20637;55.770;37.592;2022-08-21T04:28:51;100582.28;;;19.97;40.44
34374;BME280;20637;55.770;37.592;2022-08-21T04:31:18;100588.63;;;19.98;40.13
34374;BME280;20637;55.770;37.592;2022-08-21T04:33:44;100582.72;;;20.01;40.18
34374;BME280;20637;55.770;37.592;2022-08-21T04:36:10;100581.91;;;20.07;39.97
34374;BME280;20637;55.770;37.592;2022-08-21T04:38:37;100588.44;;;20.06;39.94
34374;BME280;20637;55.770;37.592;2022-08-21T04:41:03;100592.63;;;20.02;39.81
34374;BME280;20637;55.770;37.592;2022-08-21T04:43:30;100586.97;;;20.04;39.92
34374;BME280;20637;55.770;37.592;2022-08-21T04:45:55;100598.78;;;20.11;39.87
34374;BME280;20637;55.770;37.592;2022-08-21T04:48:22;100592.69;;;20.15;39.92
34374;BME280;20637;55.770;37.592;2022-08-21T04:51:09;100599.44;;;20.19;39.77
34374;BME280;20637;55.770;37.592;2022-08-21T04:54:09;100594.78;;;20.20;39.89
34374;BME280;20637;55.770;37.592;2022-08-21T04:56:57;100590.78;;;20.22;39.77
34374;BME280;20637;55.770;37.592;2022-08-21T04:59:36;100596.91;;;20.24;39.75
34374;BME280;20637;55.770;37.592;2022-08-21T05:02:04;100594.81;;;20.26;39.62
34374;BME280;20637;55.770;37.592;2022-08-21T05:04:33;100596.56;;;20.34;39.71
34374;BME280;20637;55.770;37.592;2022-08-21T05:07:04;100600.34;;;20.39;39.51
34374;BME280;20637;55.770;37.592;2022-08-21T05:09:31;100594.47;;;20.42;39.38
34374;BME280;20637;55.770;37.592;2022-08-21T05:11:57;100588.13;;;20.42;39.32
34374;BME280;20637;55.770;37.592;2022-08-21T05:14:23;100578.63;;;20.44;39.09
34374;BME280;20637;55.770;37.592;2022-08-21T05:16:50;100579.28;;;20.47;39.25
34374;BME280;20637;55.770;37.592;2022-08-21T05:19:16;100578.63;;;20.51;39.00
34374;BME280;20637;55.770;37.592;2022-08-21T05:21:44;100581.38;;;20.58;39.22
34374;BME280;20637;55.770;37.592;2022-08-21T05:24:10;100578.41;;;20.59;38.85
34374;BME280;20637;55.770;37.592;2022-08-21T05:26:37;100580.34;;;20.65;38.79
34374;BME280;20637;55.770;37.592;2022-08-21T05:29:03;100581.59;;;20.69;38.82
34374;BME280;20637;55.770;37.592;2022-08-21T05:31:29;100577.38;;;20.73;38.68
34374;BME280;20637;55.770;37.592;2022-08-21T05:33:55;100575.47;;;20.74;38.84
34374;BME280;20637;55.770;37.592;2022-08-21T05:36:21;100575.25;;;20.75;38.78
34374;BME280;20637;55.770;37.592;2022-08-21T05:38:46;100575.06;;;20.77;38.66
34374;BME280;20637;55.770;37.592;2022-08-21T05:41:12;100580.97;;;20.80;38.63
34374;BME280;20637;55.770;37.592;2022-08-21T05:43:37;100584.53;;;20.87;38.91
34374;BME280;20637;55.770;37.592;2022-08-21T05:46:04;100570.19;;;20.92;38.40
34374;BME280;20637;55.770;37.592;2022-08-21T05:48:30;100577.16;;;20.95;38.47
34374;BME280;20637;55.770;37.592;2022-08-21T05:50:56;100571.88;;;21.00;38.18
34374;BME280;20637;55.770;37.592;2022-08-21T05:53:23;100575.03;;;21.03;37.95
34374;BME280;20637;55.770;37.592;2022-08-21T05:55:50;100570.81;;;21.07;37.80
34374;BME280;20637;55.770;37.592;2022-08-21T05:58:18;100569.34;;;21.11;37.78
34374;BME280;20637;55.770;37.592;2022-08-21T06:00:46;100570.38;;;21.17;37.61
34374;BME280;20637;55.770;37.592;2022-08-21T06:03:20;100577.97;;;21.21;37.31
34374;BME280;20637;55.770;37.592;2022-08-21T06:05:46;100569.94;;;21.26;37.32
34374;BME280;20637;55.770;37.592;2022-08-21T06:08:12;100572.66;;;21.33;37.23
34374;BME280;20637;55.770;37.592;2022-08-21T06:10:38;100560.84;;;21.39;37.07
34374;BME280;20637;55.770;37.592;2022-08-21T06:13:04;100564.84;;;21.43;36.76
34374;BME280;20637;55.770;37.592;2022-08-21T06:15:30;100560.78;;;21.52;36.77
34374;BME280;20637;55.770;37.592;2022-08-21T06:17:56;100557.19;;;21.58;36.65
34374;BME280;20637;55.770;37.592;2022-08-21T06:20:22;100561.19;;;21.62;36.36
34374;BME280;20637;55.770;37.592;2022-08-21T06:22:48;100553.34;;;21.66;36.58
34374;BME280;20637;55.770;37.592;2022-08-21T06:25:14;100557.09;;;21.71;36.01
34374;BME280;20637;55.770;37.592;2022-08-21T06:27:40;100556.00;;;21.79;35.93
34374;BME280;20637;55.770;37.592;2022-08-21T06:30:06;100557.06;;;21.84;35.80
34374;BME280;20637;55.770;37.592;2022-08-21T06:32:32;100555.97;;;21.92;35.58
34374;BME280;20637;55.770;37.592;2022-08-21T06:34:57;100548.75;;;21.98;35.22
34374;BME280;20637;55.770;37.592;2022-08-21T06:37:23;100555.28;;;22.03;35.36
34374;BME280;20637;55.770;37.592;2022-08-21T06:39:49;100551.88;;;22.08;34.85
34374;BME280;20637;55.770;37.592;2022-08-21T06:42:15;100561.59;;;22.10;34.87
34374;BME280;20637;55.770;37.592;2022-08-21T06:44:43;100548.22;;;22.14;34.58
34374;BME280;20637;55.770;37.592;2022-08-21T06:47:10;100545.03;;;22.17;34.56
34374;BME280;20637;55.770;37.592;2022-08-21T06:49:36;100543.31;;;22.22;34.24
34374;BME280;20637;55.770;37.592;2022-08-21T06:52:02;100541.34;;;22.29;33.88
34374;BME280;20637;55.770;37.592;2022-08-21T06:54:28;100537.94;;;22.34;33.68
34374;BME280;20637;55.770;37.592;2022-08-21T06:56:54;100550.56;;;22.42;33.43
34374;BME280;20637;55.770;37.592;2022-08-21T06:59:19;100544.41;;;22.46;33.83
34374;BME280;20637;55.770;37.592;2022-08-21T07:01:45;100538.84;;;22.53;33.58
34374;BME280;20637;55.770;37.592;2022-08-21T07:04:11;100546.38;;;22.64;33.45
34374;BME280;20637;55.770;37.592;2022-08-21T07:06:37;100531.09;;;22.74;33.34
34374;BME280;20637;55.770;37.592;2022-08-21T07:09:03;100535.22;;;22.84;33.19
34374;BME280;20637;55.770;37.592;2022-08-21T07:11:29;100533.50;;;22.89;33.05
34374;BME280;20637;55.770;37.592;2022-08-21T07:13:55;100531.72;;;22.95;32.80
34374;BME280;20637;55.770;37.592;2022-08-21T07:16:23;100529.53;;;23.03;32.86
34374;BME280;20637;55.770;37.592;2022-08-21T07:18:49;100534.56;;;23.06;32.75
34374;BME280;20637;55.770;37.592;2022-08-21T07:21:19;100535.97;;;23.15;32.81
34374;BME280;20637;55.770;37.592;2022-08-21T07:23:48;100535.66;;;23.23;33.03
34374;BME280;20637;55.770;37.592;2022-08-21T07:26:15;100530.44;;;23.34;32.75
34374;BME280;20637;55.770;37.592;2022-08-21T07:28:41;100526.09;;;23.44;32.42
34374;BME280;20637;55.770;37.592;2022-08-21T07:31:09;100527.28;;;23.55;32.42
34374;BME280;20637;55.770;37.592;2022-08-21T07:33:35;100523.94;;;23.64;32.27
34374;BME280;20637;55.770;37.592;2022-08-21T07:36:02;100525.91;;;23.76;31.82
34374;BME280;20637;55.770;37.592;2022-08-21T07:38:28;100529.19;;;23.84;31.70
34374;BME280;20637;55.770;37.592;2022-08-21T07:40:55;100526.34;;;23.91;31.51
34374;BME280;20637;55.770;37.592;2022-08-21T07:43:24;100527.34;;;23.96;31.21
34374;BME280;20637;55.770;37.592;2022-08-21T07:45:51;100524.09;;;23.99;31.08
34374;BME280;20637;55.770;37.592;2022-08-21T07:48:16;100519.22;;;24.01;30.91
34374;BME280;20637;55.770;37.592;2022-08-21T07:50:43;100526.06;;;24.10;30.89
34374;BME280;20637;55.770;37.592;2022-08-21T07:53:09;100528.53;;;24.18;30.72
34374;BME280;20637;55.770;37.592;2022-08-21T07:59:35;100521.13;;;24.31;30.45
34374;BME280;20637;55.770;37.592;2022-08-21T08:02:01;100527.38;;;24.38;30.52
34374;BME280;20637;55.770;37.592;2022-08-21T08:04:27;100524.13;;;24.41;30.48
34374;BME280;20637;55.770;37.592;2022-08-21T08:06:52;100512.38;;;24.45;30.46
34374;BME280;20637;55.770;37.592;2022-08-21T08:09:18;100506.03;;;24.45;30.39
34374;BME280;20637;55.770;37.592;2022-08-21T08:11:45;100503.59;;;24.37;30.11
34374;BME280;20637;55.770;37.592;2022-08-21T08:14:10;100504.56;;;24.31;29.92
34374;BME280;20637;55.770;37.592;2022-08-21T08:16:36;100503.50;;;24.32;29.77
34374;BME280;20637;55.770;37.592;2022-08-21T08:19:02;100492.56;;;24.37;29.60
34374;BME280;20637;55.770;37.592;2022-08-21T08:21:28;100494.03;;;24.51;29.59
34374;BME280;20637;55.770;37.592;2022-08-21T08:27:56;100473.91;;;24.85;28.55
34374;BME280;20637;55.770;37.592;2022-08-21T08:30:22;100480.63;;;24.89;28.29
34374;BME280;20637;55.770;37.592;2022-08-21T08:33:52;100474.50;;;24.99;28.21
34374;BME280;20637;55.770;37.592;2022-08-21T08:36:17;100470.78;;;25.05;28.18
34374;BME280;20637;55.770;37.592;2022-08-21T08:38:44;100474.13;;;25.07;27.83
34374;BME280;20637;55.770;37.592;2022-08-21T08:41:17;100471.72;;;25.10;27.34
34374;BME280;20637;55.770;37.592;2022-08-21T08:43:53;100475.22;;;25.18;27.50
34374;BME280;20637;55.770;37.592;2022-08-21T08:46:28;100461.94;;;25.31;27.34
34374;BME280;20637;55.770;37.592;2022-08-21T08:49:00;100460.00;;;25.43;27.45
34374;BME280;20637;55.770;37.592;2022-08-21T08:51:53;100458.63;;;25.57;27.17
34374;BME280;20637;55.770;37.592;2022-08-21T08:54:39;100445.72;;;25.75;26.78
34374;BME280;20637;55.770;37.592;2022-08-21T08:57:14;100455.28;;;25.84;26.68
34374;BME280;20637;55.770;37.592;2022-08-21T08:59:48;100457.72;;;25.97;26.38
34374;BME280;20637;55.770;37.592;2022-08-21T09:02:16;100456.31;;;26.11;26.32
34374;BME280;20637;55.770;37.592;2022-08-21T09:04:43;100456.88;;;26.25;25.98
34374;BME280;20637;55.770;37.592;2022-08-21T09:10:04;100449.66;;;26.24;25.45
34374;BME280;20637;55.770;37.592;2022-08-21T09:18:07;100456.94;;;26.13;24.54
34374;BME280;20637;55.770;37.592;2022-08-21T09:23:49;100460.44;;;26.08;24.83
34374;BME280;20637;55.770;37.592;2022-08-21T09:26:25;100458.69;;;26.02;24.58
34374;BME280;20637;55.770;37.592;2022-08-21T09:28:54;100461.69;;;26.01;24.91
34374;BME280;20637;55.770;37.592;2022-08-21T09:31:24;100456.38;;;25.99;24.99
34374;BME280;20637;55.770;37.592;2022-08-21T09:33:57;100457.09;;;26.06;24.90
34374;BME280;20637;55.770;37.592;2022-08-21T09:39:03;100457.31;;;26.33;24.93
34374;BME280;20637;55.770;37.592;2022-08-21T09:41:32;100444.63;;;26.54;24.41
34374;BME280;20637;55.770;37.592;2022-08-21T09:43:59;100442.91;;;26.70;23.79
34374;BME280;20637;55.770;37.592;2022-08-21T09:46:26;100450.88;;;26.83;23.67
34374;BME280;20637;55.770;37.592;2022-08-21T09:48:59;100446.91;;;26.95;23.18
34374;BME280;20637;55.770;37.592;2022-08-21T09:51:29;100454.97;;;26.97;23.64
34374;BME280;20637;55.770;37.592;2022-08-21T09:54:16;100457.19;;;26.95;23.34
34374;BME280;20637;55.770;37.592;2022-08-21T09:56:56;100457.44;;;26.93;23.38
34374;BME280;20637;55.770;37.592;2022-08-21T09:59:42;100449.84;;;26.84;23.50
34374;BME280;20637;55.770;37.592;2022-08-21T10:02:35;100460.78;;;26.79;23.28
34374;BME280;20637;55.770;37.592;2022-08-21T10:05:07;100452.41;;;26.74;23.11
34374;BME280;20637;55.770;37.592;2022-08-21T10:07:36;100453.47;;;26.73;23.45
34374;BME280;20637;55.770;37.592;2022-08-21T10:10:13;100453.75;;;26.71;23.55
34374;BME280;20637;55.770;37.592;2022-08-21T10:13:06;100458.88;;;26.79;23.60
34374;BME280;20637;55.770;37.592;2022-08-21T10:27:14;100438.31;;;27.14;23.54
34374;BME280;20637;55.770;37.592;2022-08-21T10:38:19;100431.94;;;26.91;23.64
34374;BME280;20637;55.770;37.592;2022-08-21T10:41:08;100431.56;;;26.88;23.87
34374;BME280;20637;55.770;37.592;2022-08-21T10:44:03;100431.56;;;26.88;24.16
34374;BME280;20637;55.770;37.592;2022-08-21T10:46:54;100425.28;;;26.92;23.78
34374;BME280;20637;55.770;37.592;2022-08-21T10:54:44;100434.31;;;27.05;24.29
34374;BME280;20637;55.770;37.592;2022-08-21T10:57:29;100425.16;;;27.04;24.57
34374;BME280;20637;55.770;37.592;2022-08-21T11:00:03;100414.84;;;26.99;24.45
34374;BME280;20637;55.770;37.592;2022-08-21T11:07:53;100413.75;;;27.00;23.40
34374;BME280;20637;55.770;37.592;2022-08-21T11:13:04;100406.78;;;26.98;23.40
34374;BME280;20637;55.770;37.592;2022-08-21T11:15:45;100405.34;;;26.95;23.47
34374;BME280;20637;55.770;37.592;2022-08-21T11:18:41;100406.47;;;26.94;23.71
34374;BME280;20637;55.770;37.592;2022-08-21T11:21:25;100403.72;;;26.94;23.60
34374;BME280;20637;55.770;37.592;2022-08-21T11:29:41;100407.44;;;26.83;23.88
34374;BME280;20637;55.770;37.592;2022-08-21T11:45:47;100422.63;;;26.64;24.72
34374;BME280;20637;55.770;37.592;2022-08-21T11:50:56;100409.78;;;26.58;24.91
34374;BME280;20637;55.770;37.592;2022-08-21T11:53:34;100407.63;;;26.60;24.98
34374;BME280;20637;55.770;37.592;2022-08-21T11:56:10;100409.56;;;26.60;24.98
34374;BME280;20637;55.770;37.592;2022-08-21T11:58:43;100408.38;;;26.56;25.00
34374;BME280;20637;55.770;37.592;2022-08-21T12:01:19;100409.03;;;26.46;25.16
34374;BME280;20637;55.770;37.592;2022-08-21T12:04:02;100408.91;;;26.36;25.16
34374;BME280;20637;55.770;37.592;2022-08-21T12:06:30;100399.09;;;26.28;25.43
34374;BME280;20637;55.770;37.592;2022-08-21T12:09:05;100403.69;;;26.23;25.25
34374;BME280;20637;55.770;37.592;2022-08-21T12:11:31;100400.84;;;26.18;25.20
34374;BME280;20637;55.770;37.592;2022-08-21T12:16:34;100390.84;;;26.17;25.42
34374;BME280;20637;55.770;37.592;2022-08-21T12:19:14;100397.00;;;26.19;25.30
34374;BME280;20637;55.770;37.592;2022-08-21T12:29:50;100388.59;;;26.30;25.35
34374;BME280;20637;55.770;37.592;2022-08-21T12:34:52;100386.75;;;26.36;25.42
34374;BME280;20637;55.770;37.592;2022-08-21T12:37:33;100388.44;;;26.37;25.40
34374;BME280;20637;55.770;37.592;2022-08-21T12:40:00;100386.84;;;26.41;25.67
34374;BME280;20637;55.770;37.592;2022-08-21T12:42:41;100390.78;;;26.45;25.47
34374;BME280;20637;55.770;37.592;2022-08-21T12:45:43;100384.72;;;26.48;25.39
34374;BME280;20637;55.770;37.592;2022-08-21T12:48:18;100394.78;;;26.54;25.40
34374;BME280;20637;55.770;37.592;2022-08-21T12:51:12;100385.97;;;26.57;25.46
34374;BME280;20637;55.770;37.592;2022-08-21T12:53:48;100390.16;;;26.60;25.47
34374;BME280;20637;55.770;37.592;2022-08-21T12:56:21;100383.03;;;26.64;25.44
34374;BME280;20637;55.770;37.592;2022-08-21T12:58:50;100373.13;;;26.68;25.54
34374;BME280;20637;55.770;37.592;2022-08-21T13:01:31;100378.97;;;26.71;25.53
34374;BME280;20637;55.770;37.592;2022-08-21T13:04:03;100382.75;;;26.65;25.30
34374;BME280;20637;55.770;37.592;2022-08-21T13:06:36;100376.56;;;26.58;25.44
34374;BME280;20637;55.770;37.592;2022-08-21T13:09:10;100379.78;;;26.50;25.61
34374;BME280;20637;55.770;37.592;2022-08-21T13:11:37;100371.72;;;26.48;25.81
34374;BME280;20637;55.770;37.592;2022-08-21T13:14:04;100380.59;;;26.50;25.65
34374;BME280;20637;55.770;37.592;2022-08-21T13:16:31;100377.00;;;26.50;25.64
34374;BME280;20637;55.770;37.592;2022-08-21T13:19:00;100378.69;;;26.51;25.87
34374;BME280;20637;55.770;37.592;2022-08-21T13:21:29;100375.06;;;26.50;25.76
34374;BME280;20637;55.770;37.592;2022-08-21T13:26:41;100374.81;;;26.52;25.53
34374;BME280;20637;55.770;37.592;2022-08-21T13:29:09;100368.19;;;26.53;25.81
34374;BME280;20637;55.770;37.592;2022-08-21T13:31:37;100369.03;;;26.53;25.70
34374;BME280;20637;55.770;37.592;2022-08-21T13:34:05;100363.47;;;26.53;25.83
34374;BME280;20637;55.770;37.592;2022-08-21T13:36:35;100362.31;;;26.49;26.21
34374;BME280;20637;55.770;37.592;2022-08-21T13:39:07;100347.38;;;26.50;26.04
34374;BME280;20637;55.770;37.592;2022-08-21T13:41:35;100360.38;;;26.50;26.05
34374;BME280;20637;55.770;37.592;2022-08-21T13:44:44;100354.34;;;26.53;25.63
34374;BME280;20637;55.770;37.592;2022-08-21T13:47:11;100355.44;;;26.52;25.59
34374;BME280;20637;55.770;37.592;2022-08-21T13:49:49;100356.63;;;26.56;25.80
34374;BME280;20637;55.770;37.592;2022-08-21T13:52:19;100356.66;;;26.61;25.74
34374;BME280;20637;55.770;37.592;2022-08-21T13:54:58;100358.34;;;26.62;25.60
34374;BME280;20637;55.770;37.592;2022-08-21T13:57:32;100349.47;;;26.60;25.37
34374;BME280;20637;55.770;37.592;2022-08-21T14:00:25;100353.91;;;26.61;25.34
34374;BME280;20637;55.770;37.592;2022-08-21T14:02:52;100354.75;;;26.62;25.40
34374;BME280;20637;55.770;37.592;2022-08-21T14:05:26;100338.72;;;26.64;25.39
34374;BME280;20637;55.770;37.592;2022-08-21T14:08:03;100345.59;;;26.61;25.22
34374;BME280;20637;55.770;37.592;2022-08-21T14:10:29;100354.41;;;26.58;25.68
34374;BME280;20637;55.770;37.592;2022-08-21T14:12:57;100350.56;;;26.59;25.50
34374;BME280;20637;55.770;37.592;2022-08-21T14:15:26;100341.66;;;26.57;25.77
34374;BME280;20637;55.770;37.592;2022-08-21T14:17:54;100345.22;;;26.52;25.74
34374;BME280;20637;55.770;37.592;2022-08-21T14:20:34;100342.13;;;26.49;25.61
34374;BME280;20637;55.770;37.592;2022-08-21T14:23:01;100353.97;;;26.44;26.13
34374;BME280;20637;55.770;37.592;2022-08-21T14:25:45;100338.09;;;26.40;25.94
34374;BME280;20637;55.770;37.592;2022-08-21T14:28:15;100344.16;;;26.37;25.99